Lena, Illinois
Current Conditions -  °F | °C
As of 11:35 AM on Friday 31 Oct 2014 (Local Time) from KFEP Reporting Station
Broken Clouds Broken Clouds  
Wind Chill: -3°   Ceiling: 4200
Heat Index:   Visibility: 10mi
Dew Point: -7°   Wind: 22mph
Humidity: 49%   Direction: 360°N
Pressure: 30.31"   Gusts: 30mph
Location:  42.38°N, 89.82°W
Report Text: KFEP 311635Z AUTO 36019G26KT 10SM BKN042 03/M07 A3031 RMK AO2 T00311068
Loading
Personal Weather Stations






























Interactive Weather Map
Tropical Storm Tracking
New forecast layout! Learn more

10-Day Weather Forecast

Advertisements
Track Severe Weather on mobile